Time;durP1;ratioP1;P1;durP2;ratioP2;P2;SDS_P1;SDS_P2;PMS_P1;PMS_P2;Temp;Humidity;BMP_temperature;BMP_pressure;BME280_temperature;BME280_humidity;BME280_pressure;Samples;Min_cycle;Max_cycle;Signal;HPM_P1;HPM_P2
2022/10/16 00:03:05;;;;;;;24.30;17.60;;;;;;;;;;6574600;28;20169;-84
2022/10/16 00:06:16;;;;;;;21.93;17.33;;;;;;;;;;6574529;28;20197;-84
2022/10/16 00:09:26;;;;;;;19.63;16.10;;;;;;;;;;6575336;28;20181;-84
2022/10/16 00:12:37;;;;;;;19.30;16.07;;;;;;;;;;6574763;28;20220;-84
2022/10/16 00:15:47;;;;;;;21.47;16.50;;;;;;;;;;6575099;28;20243;-84
2022/10/16 00:18:58;;;;;;;18.30;15.73;;;;;;;;;;6574824;28;20583;-84
2022/10/16 00:22:08;;;;;;;20.63;15.60;;;;;;;;;;6557373;28;20204;-83
2022/10/16 00:25:19;;;;;;;18.93;16.00;;;;;;;;;;6574951;28;20520;-83
2022/10/16 00:28:29;;;;;;;18.50;15.37;;;;;;;;;;6575027;28;20177;-83
2022/10/16 00:31:39;;;;;;;18.97;15.50;;;;;;;;;;6574412;28;20173;-83
2022/10/16 00:34:50;;;;;;;18.00;16.10;;;;;;;;;;6574138;28;20295;-84
2022/10/16 00:38:00;;;;;;;18.67;15.37;;;;;;;;;;6575284;28;20205;-84
2022/10/16 00:41:11;;;;;;;19.30;14.87;;;;;;;;;;6556607;28;20185;-83
2022/10/16 00:45:00;;;;;;;19.10;15.60;;;;;;;;;;6574240;28;20179;-83
2022/10/16 00:48:13;;;;;;;20.00;14.57;;;;;;;;;;6470222;29;20230;-83
2022/10/16 00:51:28;;;;;;;17.93;14.80;;;;;;;;;;6476663;28;20199;-84
2022/10/16 00:54:38;;;;;;;17.97;14.90;;;;;;;;;;6573273;28;20165;-84
2022/10/16 00:57:49;;;;;;;17.27;14.73;;;;;;;;;;6573787;28;20300;-84
2022/10/16 01:00:59;;;;;;;17.17;14.43;;;;;;;;;;6573066;28;20308;-84
2022/10/16 01:04:09;;;;;;;17.00;14.93;;;;;;;;;;6573118;28;20508;-84
2022/10/16 01:07:40;;;;;;;19.57;14.80;;;;;;;;;;6573340;28;20177;-84
2022/10/16 01:10:56;;;;;;;17.03;13.73;;;;;;;;;;6572700;28;20196;-84
2022/10/16 01:14:13;;;;;;;16.93;14.27;;;;;;;;;;6573272;28;20190;-84
2022/10/16 01:17:42;;;;;;;16.93;14.53;;;;;;;;;;6572749;28;20205;-84
2022/10/16 01:21:08;;;;;;;16.67;14.63;;;;;;;;;;6573248;28;20180;-84
2022/10/16 01:24:22;;;;;;;16.20;14.33;;;;;;;;;;6572638;28;20169;-84
2022/10/16 01:27:35;;;;;;;16.73;13.97;;;;;;;;;;6573004;28;20317;-84
2022/10/16 01:30:46;;;;;;;15.77;13.93;;;;;;;;;;6572977;28;20173;-84
2022/10/16 01:34:00;;;;;;;17.40;14.00;;;;;;;;;;6572446;28;20176;-84
2022/10/16 01:37:13;;;;;;;15.87;13.83;;;;;;;;;;6572631;28;20212;-84
2022/10/16 01:40:25;;;;;;;17.13;14.77;;;;;;;;;;6572404;28;20165;-84
2022/10/16 01:43:42;;;;;;;16.63;14.83;;;;;;;;;;6572528;28;20180;-84
2022/10/16 01:46:53;;;;;;;18.43;13.73;;;;;;;;;;6572671;28;20168;-84
2022/10/16 01:50:04;;;;;;;16.77;14.50;;;;;;;;;;6572412;28;20231;-84
2022/10/16 01:53:15;;;;;;;17.10;14.33;;;;;;;;;;6571886;28;20594;-84
2022/10/16 01:56:26;;;;;;;17.43;14.30;;;;;;;;;;6571736;28;20197;-84
2022/10/16 01:59:40;;;;;;;17.67;15.13;;;;;;;;;;6571971;28;20220;-84
2022/10/16 02:02:52;;;;;;;15.87;13.87;;;;;;;;;;6573201;28;20176;-84
2022/10/16 02:06:03;;;;;;;16.90;14.17;;;;;;;;;;6570740;28;20268;-83
2022/10/16 02:09:16;;;;;;;16.13;14.00;;;;;;;;;;6571574;28;20514;-84
2022/10/16 02:12:28;;;;;;;16.77;14.13;;;;;;;;;;6571833;28;20248;-84
2022/10/16 02:15:39;;;;;;;16.50;14.27;;;;;;;;;;6571685;28;20211;-84
2022/10/16 02:18:49;;;;;;;16.83;14.50;;;;;;;;;;6571756;28;20169;-84
2022/10/16 02:22:02;;;;;;;17.00;13.80;;;;;;;;;;6571987;28;20169;-84
2022/10/16 02:25:17;;;;;;;16.33;14.63;;;;;;;;;;6571576;28;20224;-84
2022/10/16 02:28:31;;;;;;;18.70;13.73;;;;;;;;;;6572542;28;20169;-84
2022/10/16 02:31:45;;;;;;;16.40;12.93;;;;;;;;;;6571013;28;20177;-84
2022/10/16 02:34:56;;;;;;;17.73;14.27;;;;;;;;;;6572046;28;20185;-84
2022/10/16 02:38:07;;;;;;;18.47;14.00;;;;;;;;;;6571150;28;20201;-85
2022/10/16 02:41:18;;;;;;;17.07;14.13;;;;;;;;;;6570921;28;20512;-85
2022/10/16 02:44:28;;;;;;;14.10;12.60;;;;;;;;;;6571043;28;20172;-85
2022/10/16 02:47:38;;;;;;;17.30;13.07;;;;;;;;;;6571380;28;20231;-85
2022/10/16 02:50:49;;;;;;;15.33;12.93;;;;;;;;;;6570607;28;20180;-85
2022/10/16 02:53:59;;;;;;;16.70;13.40;;;;;;;;;;6553216;28;20232;-85
2022/10/16 02:57:09;;;;;;;16.97;14.27;;;;;;;;;;6571146;28;20222;-85
2022/10/16 03:00:20;;;;;;;15.63;13.30;;;;;;;;;;6571147;28;20229;-85
2022/10/16 03:03:30;;;;;;;16.93;14.27;;;;;;;;;;6571154;28;20676;-85
2022/10/16 03:06:41;;;;;;;14.27;12.77;;;;;;;;;;6571562;28;20641;-85
2022/10/16 03:09:51;;;;;;;14.03;12.23;;;;;;;;;;6570913;28;20228;-84
2022/10/16 03:13:02;;;;;;;16.17;13.13;;;;;;;;;;6570364;28;20172;-84
2022/10/16 03:16:13;;;;;;;15.47;13.47;;;;;;;;;;6570953;28;20196;-84
2022/10/16 03:19:24;;;;;;;17.50;13.23;;;;;;;;;;6570796;28;20227;-84
2022/10/16 03:22:34;;;;;;;15.73;13.93;;;;;;;;;;6570500;28;20256;-84
2022/10/16 03:25:44;;;;;;;18.03;13.60;;;;;;;;;;6570904;28;20565;-84
2022/10/16 03:28:55;;;;;;;15.47;13.00;;;;;;;;;;6570249;28;20173;-84
2022/10/16 03:32:05;;;;;;;15.40;12.83;;;;;;;;;;6570739;28;20176;-84
2022/10/16 03:35:15;;;;;;;15.80;12.57;;;;;;;;;;6570545;28;20180;-84
2022/10/16 03:38:26;;;;;;;16.63;13.00;;;;;;;;;;6570510;28;20283;-84
2022/10/16 03:41:36;;;;;;;15.00;13.33;;;;;;;;;;6570463;28;20626;-85
2022/10/16 03:44:46;;;;;;;15.70;12.93;;;;;;;;;;6569488;28;20173;-84
2022/10/16 03:47:57;;;;;;;15.03;13.33;;;;;;;;;;6570215;28;20196;-84
2022/10/16 03:51:07;;;;;;;14.20;12.67;;;;;;;;;;6569782;28;20174;-84
2022/10/16 03:54:17;;;;;;;14.83;13.23;;;;;;;;;;6569930;28;20227;-84
2022/10/16 03:57:28;;;;;;;14.47;12.93;;;;;;;;;;6570367;28;20201;-84
2022/10/16 04:00:44;;;;;;;13.70;12.17;;;;;;;;;;6570427;28;20772;-84
2022/10/16 04:03:55;;;;;;;14.53;12.93;;;;;;;;;;6569598;28;20248;-84
2022/10/16 04:07:05;;;;;;;16.07;13.47;;;;;;;;;;6569846;28;20173;-83
2022/10/16 04:10:15;;;;;;;14.50;12.97;;;;;;;;;;6570460;28;20174;-83
2022/10/16 04:13:26;;;;;;;14.83;13.20;;;;;;;;;;6570414;28;20592;-84
2022/10/16 04:16:36;;;;;;;15.23;12.93;;;;;;;;;;6569396;28;20201;-84
2022/10/16 04:19:46;;;;;;;15.50;12.70;;;;;;;;;;6569635;28;20176;-84
2022/10/16 04:22:57;;;;;;;13.83;12.33;;;;;;;;;;6569417;28;20661;-84
2022/10/16 04:26:07;;;;;;;15.77;13.37;;;;;;;;;;6569748;28;20184;-84
2022/10/16 04:29:17;;;;;;;14.40;12.47;;;;;;;;;;6570464;28;20165;-84
2022/10/16 04:32:28;;;;;;;14.37;12.63;;;;;;;;;;6573934;28;20185;-84
2022/10/16 04:35:39;;;;;;;15.43;13.20;;;;;;;;;;6573721;28;20208;-84
2022/10/16 04:38:49;;;;;;;15.13;13.27;;;;;;;;;;6573824;28;20227;-84
2022/10/16 04:42:00;;;;;;;16.07;13.93;;;;;;;;;;6573630;28;20204;-84
2022/10/16 04:45:10;;;;;;;16.43;13.23;;;;;;;;;;6573589;28;20223;-84
2022/10/16 04:48:21;;;;;;;16.40;12.93;;;;;;;;;;6573551;28;20178;-84
2022/10/16 04:51:31;;;;;;;17.20;13.30;;;;;;;;;;6574143;28;20227;-84
2022/10/16 04:54:41;;;;;;;14.90;13.00;;;;;;;;;;6573746;28;20172;-84
2022/10/16 04:57:52;;;;;;;14.57;12.30;;;;;;;;;;6573620;28;20662;-84
2022/10/16 05:01:02;;;;;;;14.70;12.97;;;;;;;;;;6573724;28;20674;-84
2022/10/16 05:04:12;;;;;;;16.60;13.67;;;;;;;;;;6573450;28;20169;-84
2022/10/16 05:07:23;;;;;;;14.80;12.87;;;;;;;;;;6573733;28;20173;-84
2022/10/16 05:10:33;;;;;;;14.40;12.67;;;;;;;;;;6573716;28;20219;-84
2022/10/16 05:13:43;;;;;;;15.93;13.20;;;;;;;;;;6556631;28;20637;-84
2022/10/16 05:16:53;;;;;;;15.43;13.10;;;;;;;;;;6573120;28;20204;-84
2022/10/16 05:20:04;;;;;;;15.43;13.07;;;;;;;;;;6573040;28;20175;-84
2022/10/16 05:23:14;;;;;;;18.03;12.97;;;;;;;;;;6572710;28;20314;-84
2022/10/16 05:26:25;;;;;;;13.87;11.50;;;;;;;;;;6571976;28;20181;-84
2022/10/16 05:29:36;;;;;;;13.17;11.03;;;;;;;;;;6572945;28;20243;-84
2022/10/16 05:32:47;;;;;;;14.13;12.73;;;;;;;;;;6556244;28;20177;-84
2022/10/16 05:36:00;;;;;;;15.87;13.50;;;;;;;;;;6572759;28;20251;-84
2022/10/16 05:39:11;;;;;;;13.20;11.90;;;;;;;;;;6572365;28;20177;-84
2022/10/16 05:42:21;;;;;;;16.47;12.57;;;;;;;;;;6572239;28;20258;-84
2022/10/16 05:45:32;;;;;;;16.53;12.37;;;;;;;;;;6572556;28;20169;-84
2022/10/16 05:48:44;;;;;;;13.20;11.80;;;;;;;;;;6572217;28;20536;-84
2022/10/16 05:51:54;;;;;;;17.40;15.27;;;;;;;;;;6572854;28;20211;-84
2022/10/16 05:55:04;;;;;;;14.07;12.47;;;;;;;;;;6573032;28;20166;-85
2022/10/16 05:58:15;;;;;;;17.57;14.93;;;;;;;;;;6572406;28;20591;-84
2022/10/16 06:01:25;;;;;;;16.27;14.23;;;;;;;;;;6572340;28;20220;-84
2022/10/16 06:04:35;;;;;;;15.55;12.75;;;;;;;;;;6572107;28;20173;-85
2022/10/16 06:07:46;;;;;;;13.55;12.25;;;;;;;;;;6572027;28;20224;-83
2022/10/16 06:11:03;;;;;;;15.48;13.57;;;;;;;;;;6571516;28;20165;-83
2022/10/16 06:14:13;;;;;;;17.25;13.15;;;;;;;;;;6572359;28;20256;-84
2022/10/16 06:17:23;;;;;;;16.23;14.45;;;;;;;;;;6571299;28;20698;-84
2022/10/16 06:20:34;;;;;;;13.10;11.80;;;;;;;;;;6571966;28;20169;-84
2022/10/16 06:23:48;;;;;;;14.18;12.68;;;;;;;;;;6571514;28;20184;-83
2022/10/16 06:26:58;;;;;;;13.55;11.35;;;;;;;;;;6571942;28;20177;-83
2022/10/16 06:30:08;;;;;;;13.30;11.57;;;;;;;;;;6571003;28;20216;-84
2022/10/16 06:33:19;;;;;;;14.23;11.82;;;;;;;;;;6571868;28;20165;-84
2022/10/16 06:36:29;;;;;;;12.15;10.95;;;;;;;;;;6571490;28;20263;-84
2022/10/16 06:39:40;;;;;;;14.55;12.77;;;;;;;;;;6554015;28;20201;-84
2022/10/16 06:42:51;;;;;;;11.70;10.60;;;;;;;;;;6553627;28;20185;-84
2022/10/16 06:46:02;;;;;;;12.35;11.15;;;;;;;;;;6571790;28;20572;-84
2022/10/16 06:49:13;;;;;;;12.52;11.30;;;;;;;;;;6571727;28;20173;-84
2022/10/16 06:52:23;;;;;;;13.35;11.52;;;;;;;;;;6570695;28;20267;-85
2022/10/16 06:55:33;;;;;;;13.65;11.93;;;;;;;;;;6570849;28;20169;-84
2022/10/16 06:58:44;;;;;;;13.43;11.38;;;;;;;;;;6553365;28;20589;-84
2022/10/16 07:01:54;;;;;;;12.25;10.95;;;;;;;;;;6570299;28;20287;-84
2022/10/16 07:05:05;;;;;;;12.48;10.52;;;;;;;;;;6570881;28;20186;-84
2022/10/16 07:08:15;;;;;;;12.18;10.98;;;;;;;;;;6571592;28;20188;-84
2022/10/16 07:11:25;;;;;;;10.07;9.25;;;;;;;;;;6569457;28;20173;-84
2022/10/16 07:14:36;;;;;;;10.30;9.32;;;;;;;;;;6570343;28;20255;-84
2022/10/16 07:17:46;;;;;;;10.23;9.25;;;;;;;;;;6570787;28;20627;-84
2022/10/16 07:21:02;;;;;;;10.38;9.38;;;;;;;;;;6570466;28;20177;-83
2022/10/16 07:24:14;;;;;;;9.60;8.70;;;;;;;;;;6570818;28;20158;-83
2022/10/16 07:27:24;;;;;;;10.23;8.98;;;;;;;;;;6570739;28;20165;-82
2022/10/16 07:30:36;;;;;;;9.77;8.88;;;;;;;;;;6569955;28;20519;-82
2022/10/16 07:33:47;;;;;;;9.77;8.95;;;;;;;;;;6570451;28;20168;-82
2022/10/16 07:36:58;;;;;;;9.98;9.07;;;;;;;;;;6569474;28;20665;-85
2022/10/16 07:40:08;;;;;;;9.88;8.98;;;;;;;;;;6570672;28;20625;-84
2022/10/16 07:43:19;;;;;;;10.43;9.30;;;;;;;;;;6552227;28;20264;-85
2022/10/16 07:46:29;;;;;;;10.00;9.13;;;;;;;;;;6569698;28;20212;-85
2022/10/16 07:49:40;;;;;;;10.65;9.57;;;;;;;;;;6569967;28;20169;-86
2022/10/16 07:52:50;;;;;;;10.07;9.18;;;;;;;;;;6570206;28;20553;-85
2022/10/16 07:56:02;;;;;;;9.20;8.25;;;;;;;;;;6570526;28;20213;-86
2022/10/16 07:59:18;;;;;;;10.55;9.45;;;;;;;;;;6570121;28;20176;-88
2022/10/16 08:02:28;;;;;;;11.57;9.05;;;;;;;;;;6570365;28;20177;-86
2022/10/16 08:05:38;;;;;;;10.38;9.38;;;;;;;;;;6572831;28;20239;-85
2022/10/16 08:08:49;;;;;;;10.43;9.32;;;;;;;;;;6575185;28;20176;-84
2022/10/16 08:12:00;;;;;;;10.45;9.50;;;;;;;;;;6573865;28;20508;-85
2022/10/16 08:15:10;;;;;;;11.02;9.82;;;;;;;;;;6572538;28;20169;-85
2022/10/16 08:18:20;;;;;;;11.30;10.00;;;;;;;;;;6572170;28;20243;-84
2022/10/16 08:21:30;;;;;;;10.85;9.82;;;;;;;;;;6571322;28;20184;-85
2022/10/16 08:24:41;;;;;;;10.00;9.10;;;;;;;;;;6572199;28;20271;-85
2022/10/16 08:27:51;;;;;;;11.10;9.95;;;;;;;;;;6572073;28;20204;-85
2022/10/16 08:31:07;;;;;;;10.18;9.15;;;;;;;;;;6571919;28;20638;-85
2022/10/16 08:34:17;;;;;;;14.95;12.18;;;;;;;;;;6556699;28;20173;-84
2022/10/16 08:37:32;;;;;;;12.48;11.18;;;;;;;;;;6574758;28;20211;-84
2022/10/16 08:40:42;;;;;;;9.75;8.85;;;;;;;;;;6574622;28;20180;-84
2022/10/16 08:44:11;;;;;;;10.20;9.07;;;;;;;;;;6574268;28;20501;-84
2022/10/16 08:47:40;;;;;;;10.63;9.23;;;;;;;;;;6574026;28;20187;-84
2022/10/16 08:50:51;;;;;;;9.73;8.77;;;;;;;;;;6574313;28;20275;-84
2022/10/16 08:54:06;;;;;;;9.23;8.43;;;;;;;;;;6573979;28;20586;-84
2022/10/16 08:57:18;;;;;;;9.85;8.90;;;;;;;;;;6573367;28;20196;-85
2022/10/16 09:00:29;;;;;;;9.18;8.38;;;;;;;;;;6573409;28;20298;-85
2022/10/16 09:03:53;;;;;;;11.40;9.68;;;;;;;;;;6574165;28;20165;-83
2022/10/16 09:07:07;;;;;;;9.60;8.75;;;;;;;;;;6571886;28;20653;-85
2022/10/16 09:10:24;;;;;;;9.38;8.57;;;;;;;;;;6571353;28;20173;-84
2022/10/16 09:13:50;;;;;;;9.63;8.63;;;;;;;;;;6571622;28;20173;-84
2022/10/16 09:17:07;;;;;;;8.80;7.93;;;;;;;;;;6569796;28;20196;-85
2022/10/16 09:20:20;;;;;;;8.63;7.70;;;;;;;;;;6570516;28;20917;-84
2022/10/16 09:23:33;;;;;;;9.05;8.18;;;;;;;;;;6570931;28;20213;-86
2022/10/16 09:26:44;;;;;;;9.07;8.13;;;;;;;;;;6571164;28;20259;-87
2022/10/16 09:29:54;;;;;;;9.45;8.60;;;;;;;;;;6572879;28;20172;-85
2022/10/16 09:33:05;;;;;;;8.50;7.70;;;;;;;;;;6572695;28;20516;-85
2022/10/16 09:36:15;;;;;;;8.23;7.53;;;;;;;;;;6572749;28;20193;-85
2022/10/16 09:39:26;;;;;;;8.30;7.45;;;;;;;;;;6572394;28;20188;-85
2022/10/16 09:42:37;;;;;;;10.25;9.13;;;;;;;;;;6572123;28;20248;-86
2022/10/16 09:45:55;;;;;;;9.18;8.38;;;;;;;;;;6572432;28;20651;-86
2022/10/16 09:49:18;;;;;;;10.13;8.18;;;;;;;;;;6554662;28;20701;-86
2022/10/16 09:52:29;;;;;;;8.75;7.95;;;;;;;;;;6552306;28;20201;-87
2022/10/16 09:55:49;;;;;;;8.88;8.02;;;;;;;;;;6552790;28;20243;-85
2022/10/16 09:59:02;;;;;;;9.93;8.20;;;;;;;;;;6570144;28;20234;-86
2022/10/16 10:02:14;;;;;;;8.25;7.55;;;;;;;;;;6572720;28;20248;-86
2022/10/16 10:05:26;;;;;;;8.60;7.80;;;;;;;;;;6572306;28;20197;-86
2022/10/16 10:08:36;;;;;;;8.73;7.70;;;;;;;;;;6571420;28;20173;-86
2022/10/16 10:11:48;;;;;;;8.50;7.68;;;;;;;;;;6552079;28;20211;-86
2022/10/16 10:15:03;;;;;;;8.13;7.43;;;;;;;;;;6568342;28;20629;-86
2022/10/16 10:18:22;;;;;;;8.60;7.72;;;;;;;;;;6569454;28;20303;-85
2022/10/16 10:21:33;;;;;;;8.27;7.47;;;;;;;;;;6569119;28;20715;-85
2022/10/16 10:24:44;;;;;;;8.07;7.38;;;;;;;;;;6569801;28;20173;-86
2022/10/16 10:27:55;;;;;;;7.85;7.15;;;;;;;;;;6568635;28;20668;-87
2022/10/16 10:31:05;;;;;;;8.93;7.75;;;;;;;;;;6570902;28;20169;-86
2022/10/16 10:34:34;;;;;;;8.70;7.88;;;;;;;;;;6571996;28;20165;-86
2022/10/16 10:37:59;;;;;;;8.32;7.55;;;;;;;;;;6570968;28;20568;-84
2022/10/16 10:41:10;;;;;;;7.95;7.15;;;;;;;;;;6553784;28;20645;-84
2022/10/16 10:44:30;;;;;;;9.30;8.40;;;;;;;;;;6571281;28;20268;-85
2022/10/16 10:47:55;;;;;;;8.23;7.53;;;;;;;;;;6571294;28;20180;-85
2022/10/16 10:51:10;;;;;;;8.23;7.40;;;;;;;;;;6570947;28;20173;-84
2022/10/16 10:54:29;;;;;;;7.78;7.07;;;;;;;;;;6570932;28;20192;-86
2022/10/16 10:57:47;;;;;;;9.98;8.40;;;;;;;;;;6571004;28;20296;-86
2022/10/16 11:01:04;;;;;;;9.40;7.85;;;;;;;;;;6570896;28;20225;-86
2022/10/16 11:04:14;;;;;;;9.77;8.85;;;;;;;;;;6571119;28;20170;-86
2022/10/16 11:07:27;;;;;;;8.98;8.07;;;;;;;;;;6570825;28;20185;-86
2022/10/16 11:10:49;;;;;;;9.32;7.82;;;;;;;;;;6552636;28;20228;-86
2022/10/16 11:14:03;;;;;;;8.25;7.45;;;;;;;;;;6570907;28;20169;-86
2022/10/16 11:17:16;;;;;;;11.75;7.72;;;;;;;;;;6571022;28;20291;-86
2022/10/16 11:20:32;;;;;;;8.40;7.22;;;;;;;;;;6570346;28;20534;-86
2022/10/16 11:23:42;;;;;;;6.80;6.20;;;;;;;;;;6570791;28;20205;-86
2022/10/16 11:26:53;;;;;;;6.90;6.30;;;;;;;;;;6570538;28;20183;-86
2022/10/16 11:30:08;;;;;;;7.28;6.47;;;;;;;;;;6570514;28;20227;-86
2022/10/16 11:33:23;;;;;;;8.57;6.18;;;;;;;;;;6570877;28;20169;-85
2022/10/16 11:36:33;;;;;;;6.30;5.80;;;;;;;;;;6570705;28;20254;-85
2022/10/16 11:39:44;;;;;;;6.28;5.68;;;;;;;;;;6575952;28;20169;-85
2022/10/16 11:43:02;;;;;;;5.75;5.28;;;;;;;;;;6579229;28;20169;-86
2022/10/16 11:46:15;;;;;;;6.25;5.75;;;;;;;;;;6561664;28;20666;-85
2022/10/16 11:49:26;;;;;;;7.45;6.30;;;;;;;;;;6579529;28;20173;-86
2022/10/16 11:52:41;;;;;;;6.78;6.18;;;;;;;;;;6578434;28;20216;-85
2022/10/16 11:55:52;;;;;;;6.78;6.18;;;;;;;;;;6578303;28;20581;-86
2022/10/16 11:59:05;;;;;;;6.57;5.90;;;;;;;;;;6578583;28;20169;-85
2022/10/16 12:02:21;;;;;;;6.50;5.93;;;;;;;;;;6579133;28;20211;-86
2022/10/16 12:05:37;;;;;;;6.30;5.70;;;;;;;;;;6578631;28;20184;-85
2022/10/16 12:08:48;;;;;;;7.35;6.75;;;;;;;;;;6579347;28;20169;-85
2022/10/16 12:11:59;;;;;;;6.80;6.07;;;;;;;;;;6578821;28;20219;-86
2022/10/16 12:15:15;;;;;;;7.30;6.60;;;;;;;;;;6560882;28;20180;-85
2022/10/16 12:18:26;;;;;;;8.85;6.75;;;;;;;;;;6561150;28;20216;-86
2022/10/16 12:21:36;;;;;;;6.47;5.97;;;;;;;;;;6578628;28;20199;-85
2022/10/16 12:24:50;;;;;;;6.72;5.97;;;;;;;;;;6578985;28;20252;-85
2022/10/16 12:28:05;;;;;;;6.57;5.97;;;;;;;;;;6578768;28;20212;-85
2022/10/16 12:31:16;;;;;;;6.63;5.93;;;;;;;;;;6578237;28;20174;-86
2022/10/16 12:34:28;;;;;;;5.95;5.45;;;;;;;;;;6577726;28;20172;-85
2022/10/16 12:37:38;;;;;;;7.10;6.50;;;;;;;;;;6578181;28;20200;-85
2022/10/16 12:41:12;;;;;;;6.80;6.20;;;;;;;;;;6578714;28;20192;-85
2022/10/16 12:44:28;;;;;;;7.68;6.78;;;;;;;;;;6578243;28;20173;-86
2022/10/16 12:47:47;;;;;;;6.88;6.25;;;;;;;;;;6578188;28;20177;-86
2022/10/16 12:50:57;;;;;;;7.95;6.85;;;;;;;;;;6575361;28;20249;-86
2022/10/16 12:54:15;;;;;;;7.10;6.50;;;;;;;;;;6573412;28;20185;-86
2022/10/16 12:57:43;;;;;;;7.13;6.53;;;;;;;;;;6573374;28;20237;-86
2022/10/16 13:00:57;;;;;;;7.32;6.55;;;;;;;;;;6574092;28;20221;-86
2022/10/16 13:04:18;;;;;;;7.82;6.68;;;;;;;;;;6574384;28;20169;-86
2022/10/16 13:07:42;;;;;;;7.55;6.85;;;;;;;;;;6574135;28;20178;-84
2022/10/16 13:10:58;;;;;;;7.25;6.55;;;;;;;;;;6556358;28;20622;-85
2022/10/16 13:14:15;;;;;;;7.45;6.70;;;;;;;;;;6572981;28;20169;-86
2022/10/16 13:17:32;;;;;;;6.82;6.22;;;;;;;;;;6573321;28;20193;-85
2022/10/16 13:20:56;;;;;;;7.30;6.70;;;;;;;;;;6573694;28;20205;-84
2022/10/16 13:24:16;;;;;;;7.18;6.10;;;;;;;;;;6573417;28;20510;-84
2022/10/16 13:27:26;;;;;;;7.40;6.70;;;;;;;;;;6553873;28;20177;-84
2022/10/16 13:30:44;;;;;;;6.88;6.30;;;;;;;;;;6570941;28;20260;-85
2022/10/16 13:33:58;;;;;;;7.80;6.85;;;;;;;;;;6570375;28;20169;-85
2022/10/16 13:37:16;;;;;;;7.80;7.10;;;;;;;;;;6570395;28;20250;-84
2022/10/16 13:40:26;;;;;;;9.63;7.30;;;;;;;;;;6570510;28;20193;-85
2022/10/16 13:43:43;;;;;;;7.47;6.78;;;;;;;;;;6570099;28;20165;-84
2022/10/16 13:47:00;;;;;;;7.95;7.15;;;;;;;;;;6571692;28;20319;-85
2022/10/16 13:50:17;;;;;;;8.55;7.22;;;;;;;;;;6573222;28;20265;-84
2022/10/16 13:53:30;;;;;;;9.20;7.68;;;;;;;;;;6572276;28;20201;-84
2022/10/16 13:56:40;;;;;;;8.60;7.30;;;;;;;;;;6572122;28;20201;-84
2022/10/16 13:59:51;;;;;;;10.45;7.78;;;;;;;;;;6572634;28;20236;-84
2022/10/16 14:03:15;;;;;;;9.18;8.15;;;;;;;;;;6571258;28;20263;-84
2022/10/16 14:06:25;;;;;;;8.68;7.88;;;;;;;;;;6572932;28;20599;-84
2022/10/16 14:09:36;;;;;;;10.57;7.68;;;;;;;;;;6572335;28;20192;-85
2022/10/16 14:12:54;;;;;;;9.13;8.23;;;;;;;;;;6572428;28;20634;-85
2022/10/16 14:16:08;;;;;;;8.80;7.90;;;;;;;;;;6554382;28;20556;-85
2022/10/16 14:19:23;;;;;;;9.38;8.27;;;;;;;;;;6571515;28;20177;-85
2022/10/16 14:22:41;;;;;;;9.23;8.32;;;;;;;;;;6571455;28;20518;-85
2022/10/16 14:25:51;;;;;;;8.77;8.00;;;;;;;;;;6571536;28;20199;-86
2022/10/16 14:29:09;;;;;;;8.75;7.95;;;;;;;;;;6571290;28;20177;-86
2022/10/16 14:32:23;;;;;;;9.23;8.32;;;;;;;;;;6572050;28;20487;-86
2022/10/16 14:35:38;;;;;;;9.07;7.80;;;;;;;;;;6571364;28;20165;-85
2022/10/16 14:38:59;;;;;;;8.20;7.40;;;;;;;;;;6570287;28;20212;-85
2022/10/16 14:42:14;;;;;;;9.02;8.13;;;;;;;;;;6571637;28;20161;-86
2022/10/16 14:45:27;;;;;;;7.93;7.03;;;;;;;;;;6571690;28;20177;-86
2022/10/16 14:48:40;;;;;;;8.25;7.55;;;;;;;;;;6570802;28;20176;-85
2022/10/16 14:51:51;;;;;;;8.32;7.47;;;;;;;;;;6571010;28;20288;-85
2022/10/16 14:55:02;;;;;;;9.95;7.80;;;;;;;;;;6571840;28;20517;-85
2022/10/16 14:58:15;;;;;;;8.65;7.85;;;;;;;;;;6570631;28;20201;-85
2022/10/16 15:01:26;;;;;;;9.10;8.20;;;;;;;;;;6571521;28;20220;-86
2022/10/16 15:04:36;;;;;;;7.97;7.18;;;;;;;;;;6570970;28;20169;-87
2022/10/16 15:07:47;;;;;;;8.98;7.90;;;;;;;;;;6570557;28;20181;-86
2022/10/16 15:10:57;;;;;;;9.13;8.02;;;;;;;;;;6571354;28;20609;-87
2022/10/16 15:14:13;;;;;;;9.40;8.40;;;;;;;;;;6570013;28;20165;-86
2022/10/16 15:17:24;;;;;;;8.48;7.68;;;;;;;;;;6570269;28;20231;-85
2022/10/16 15:20:35;;;;;;;10.88;8.90;;;;;;;;;;6570184;28;20169;-86
2022/10/16 15:23:45;;;;;;;11.90;8.57;;;;;;;;;;6570555;28;20170;-86
2022/10/16 15:26:55;;;;;;;10.95;9.40;;;;;;;;;;6553743;28;20181;-85
2022/10/16 15:30:06;;;;;;;9.38;8.38;;;;;;;;;;6570653;28;20259;-86
2022/10/16 15:33:19;;;;;;;10.13;9.13;;;;;;;;;;6570592;28;20184;-87
2022/10/16 15:36:36;;;;;;;9.35;8.35;;;;;;;;;;6570306;28;20258;-86
2022/10/16 15:39:46;;;;;;;11.38;8.75;;;;;;;;;;6569984;28;20176;-87
2022/10/16 15:42:57;;;;;;;10.63;9.57;;;;;;;;;;6570375;28;20168;-86
2022/10/16 15:46:11;;;;;;;10.65;9.65;;;;;;;;;;6569949;28;20173;-85
2022/10/16 15:49:21;;;;;;;11.10;9.77;;;;;;;;;;6569220;28;20176;-88
2022/10/16 15:52:31;;;;;;;11.43;10.23;;;;;;;;;;6552634;28;20201;-86
2022/10/16 15:55:42;;;;;;;10.48;9.38;;;;;;;;;;6569596;28;20180;-86
2022/10/16 15:58:53;;;;;;;11.50;10.30;;;;;;;;;;6567590;28;20287;-85
2022/10/16 16:02:03;;;;;;;10.27;9.20;;;;;;;;;;6567660;28;20221;-83
2022/10/16 16:05:14;;;;;;;13.57;9.87;;;;;;;;;;6570208;28;20208;-84
2022/10/16 16:08:24;;;;;;;11.38;10.23;;;;;;;;;;6568464;28;20169;-84
2022/10/16 16:11:38;;;;;;;11.60;9.50;;;;;;;;;;6567875;28;20169;-85
2022/10/16 16:14:48;;;;;;;11.13;9.63;;;;;;;;;;6567449;28;20173;-86
2022/10/16 16:18:01;;;;;;;10.83;9.33;;;;;;;;;;6567364;28;20673;-85
2022/10/16 16:21:12;;;;;;;12.67;10.47;;;;;;;;;;6567838;28;20177;-86
2022/10/16 16:24:22;;;;;;;11.77;9.30;;;;;;;;;;6566839;28;20660;-85
2022/10/16 16:27:34;;;;;;;11.53;10.33;;;;;;;;;;6571561;28;20177;-85
2022/10/16 16:30:44;;;;;;;12.47;9.93;;;;;;;;;;6574453;28;20256;-84
2022/10/16 16:33:55;;;;;;;11.57;9.43;;;;;;;;;;6573899;28;20575;-84
2022/10/16 16:37:06;;;;;;;12.00;10.45;;;;;;;;;;6574416;28;20205;-84
2022/10/16 16:40:16;;;;;;;15.37;12.77;;;;;;;;;;6572817;28;20192;-85
2022/10/16 16:43:29;;;;;;;12.70;10.97;;;;;;;;;;6574375;28;20191;-84
2022/10/16 16:46:40;;;;;;;15.37;10.70;;;;;;;;;;6574127;28;20173;-84
2022/10/16 16:49:51;;;;;;;12.10;10.27;;;;;;;;;;6573846;28;20180;-83
2022/10/16 16:53:01;;;;;;;11.93;9.83;;;;;;;;;;6574414;28;20275;-84
2022/10/16 16:56:12;;;;;;;11.97;10.30;;;;;;;;;;6573950;28;20227;-84
2022/10/16 16:59:22;;;;;;;19.47;15.83;;;;;;;;;;6573481;28;20233;-84
2022/10/16 17:02:32;;;;;;;16.40;13.80;;;;;;;;;;6573420;28;20211;-84
2022/10/16 17:05:43;;;;;;;15.10;12.93;;;;;;;;;;6556207;28;20212;-85
2022/10/16 17:08:53;;;;;;;18.00;13.47;;;;;;;;;;6574016;28;20212;-85
2022/10/16 17:12:04;;;;;;;18.77;14.23;;;;;;;;;;6574300;28;20311;-86
2022/10/16 17:15:14;;;;;;;16.37;12.70;;;;;;;;;;6573498;28;20592;-85
2022/10/16 17:18:24;;;;;;;15.00;11.37;;;;;;;;;;6573364;28;20661;-85
2022/10/16 17:21:35;;;;;;;13.40;12.00;;;;;;;;;;6573442;28;20201;-86
2022/10/16 17:24:53;;;;;;;16.13;12.53;;;;;;;;;;6574293;28;20177;-84
2022/10/16 17:28:04;;;;;;;14.63;13.00;;;;;;;;;;6573464;28;20518;-85
2022/10/16 17:31:15;;;;;;;15.90;13.50;;;;;;;;;;6573278;28;20165;-84
2022/10/16 17:34:26;;;;;;;14.50;12.90;;;;;;;;;;6555321;28;20177;-82
2022/10/16 17:37:36;;;;;;;14.77;12.03;;;;;;;;;;6572876;28;20204;-83
2022/10/16 17:40:46;;;;;;;15.17;12.77;;;;;;;;;;6572447;28;20251;-83
2022/10/16 17:43:57;;;;;;;16.20;13.67;;;;;;;;;;6572834;28;20220;-83
2022/10/16 17:47:07;;;;;;;17.10;14.20;;;;;;;;;;6572670;28;20772;-92
2022/10/16 17:50:17;;;;;;;19.33;15.83;;;;;;;;;;6572808;28;20256;-84
2022/10/16 17:53:28;;;;;;;17.13;13.40;;;;;;;;;;6572887;28;20204;-84
2022/10/16 17:56:38;;;;;;;17.70;13.30;;;;;;;;;;6571735;28;20236;-84
2022/10/16 17:59:48;;;;;;;17.63;14.20;;;;;;;;;;6571170;28;20609;-85
2022/10/16 18:02:59;;;;;;;17.17;13.87;;;;;;;;;;6571469;28;20175;-86
2022/10/16 18:06:11;;;;;;;17.03;13.53;;;;;;;;;;6570101;28;20553;-86
2022/10/16 18:09:22;;;;;;;19.10;14.53;;;;;;;;;;6569337;28;20204;-86
2022/10/16 18:12:32;;;;;;;17.03;14.97;;;;;;;;;;6569614;28;20201;-87
2022/10/16 18:15:42;;;;;;;17.27;14.93;;;;;;;;;;6569301;28;20256;-87
2022/10/16 18:18:53;;;;;;;18.83;16.13;;;;;;;;;;6569027;28;20207;-86
2022/10/16 18:22:05;;;;;;;20.60;16.80;;;;;;;;;;6569172;28;20172;-86
2022/10/16 18:25:15;;;;;;;19.03;15.37;;;;;;;;;;6571230;28;20184;-85
2022/10/16 18:28:26;;;;;;;17.80;15.27;;;;;;;;;;6571041;28;20260;-86
2022/10/16 18:31:36;;;;;;;16.00;14.27;;;;;;;;;;6571493;28;20173;-87
2022/10/16 18:34:47;;;;;;;16.17;14.43;;;;;;;;;;6572599;28;20173;-87
2022/10/16 18:38:03;;;;;;;18.60;14.60;;;;;;;;;;6571422;28;20204;-87
2022/10/16 18:41:14;;;;;;;20.17;14.30;;;;;;;;;;6556102;28;20189;-87
2022/10/16 18:44:29;;;;;;;18.30;14.60;;;;;;;;;;6571190;28;20169;-87
2022/10/16 18:47:40;;;;;;;16.77;14.67;;;;;;;;;;6570877;28;20525;-90
2022/10/16 18:50:57;;;;;;;19.73;15.83;;;;;;;;;;6552946;28;20215;-86
2022/10/16 18:54:11;;;;;;;19.53;14.93;;;;;;;;;;6571021;28;20197;-87
2022/10/16 18:57:22;;;;;;;17.67;15.43;;;;;;;;;;6571115;28;20240;-87